Time;durP1;ratioP1;P1;durP2;ratioP2;P2;SDS_P1;SDS_P2;PMS_P1;PMS_P2;Temp;Humidity;BMP_temperature;BMP_pressure;BME280_temperature;BME280_humidity;BME280_pressure;Samples;Min_cycle;Max_cycle;Signal;HPM_P1;HPM_P2
2021/11/27 00:00:17;;;;;;;36.33;3.40;;;;;;;;;;5021027;28;20048;-66
2021/11/27 00:02:43;;;;;;;29.13;3.20;;;;;;;;;;5019008;28;20033;-65
2021/11/27 00:05:09;;;;;;;31.90;3.72;;;;;;;;;;5016772;28;20021;-65
2021/11/27 00:07:35;;;;;;;29.65;4.63;;;;;;;;;;5019155;28;20033;-66
2021/11/27 00:10:00;;;;;;;26.95;3.13;;;;;;;;;;5019947;28;20025;-65
2021/11/27 00:12:26;;;;;;;29.20;3.20;;;;;;;;;;5022359;28;20033;-64
2021/11/27 00:14:51;;;;;;;37.17;2.85;;;;;;;;;;5016197;28;20033;-64
2021/11/27 00:17:17;;;;;;;22.08;2.05;;;;;;;;;;5019299;28;20030;-67
2021/11/27 00:19:43;;;;;;;27.52;2.58;;;;;;;;;;5014951;28;20539;-64
2021/11/27 00:22:08;;;;;;;44.65;3.33;;;;;;;;;;5015186;28;20093;-65
2021/11/27 00:24:34;;;;;;;19.73;3.58;;;;;;;;;;5016904;28;20386;-68
2021/11/27 00:26:59;;;;;;;31.73;2.38;;;;;;;;;;5018879;28;20059;-65
2021/11/27 00:29:25;;;;;;;26.95;2.20;;;;;;;;;;5018995;28;20299;-66
2021/11/27 00:31:51;;;;;;;22.17;2.22;;;;;;;;;;5023690;28;20036;-67
2021/11/27 00:34:17;;;;;;;20.27;2.15;;;;;;;;;;5024154;28;20033;-66
2021/11/27 00:36:43;;;;;;;32.92;1.92;;;;;;;;;;5018633;28;20026;-66
2021/11/27 00:39:09;;;;;;;13.85;2.28;;;;;;;;;;5020673;28;20040;-66
2021/11/27 00:41:35;;;;;;;21.40;2.83;;;;;;;;;;5023594;28;20021;-66
2021/11/27 00:44:01;;;;;;;18.27;1.65;;;;;;;;;;5019879;28;20033;-65
2021/11/27 00:46:27;;;;;;;16.52;1.52;;;;;;;;;;5016142;28;20028;-65
2021/11/27 00:48:53;;;;;;;12.75;2.15;;;;;;;;;;5018720;28;20406;-65
2021/11/27 00:51:23;;;;;;;18.88;1.40;;;;;;;;;;5018376;28;20381;-67
2021/11/27 00:53:49;;;;;;;20.27;1.48;;;;;;;;;;5018757;28;20562;-66
2021/11/27 00:56:16;;;;;;;30.13;1.98;;;;;;;;;;5018328;28;20025;-66
2021/11/27 00:58:44;;;;;;;12.00;1.85;;;;;;;;;;5022882;28;20516;-64
2021/11/27 01:01:13;;;;;;;25.73;2.28;;;;;;;;;;5020668;28;20045;-68
2021/11/27 01:03:41;;;;;;;13.07;1.05;;;;;;;;;;5019189;28;20035;-67
2021/11/27 01:06:09;;;;;;;12.88;1.45;;;;;;;;;;5014223;28;20478;-65
2021/11/27 01:08:36;;;;;;;18.42;1.90;;;;;;;;;;5018093;28;20025;-64
2021/11/27 01:11:24;;;;;;;13.93;2.13;;;;;;;;;;5018258;28;20037;-65
2021/11/27 01:13:52;;;;;;;15.55;1.98;;;;;;;;;;5019831;28;20025;-65
2021/11/27 01:16:20;;;;;;;13.40;1.40;;;;;;;;;;5024964;28;20105;-64
2021/11/27 01:18:47;;;;;;;12.30;2.38;;;;;;;;;;5023578;28;20073;-65
2021/11/27 01:21:16;;;;;;;16.50;1.63;;;;;;;;;;5017361;28;20038;-65
2021/11/27 01:23:43;;;;;;;17.40;1.67;;;;;;;;;;5020088;28;20069;-65
2021/11/27 01:26:09;;;;;;;23.95;2.65;;;;;;;;;;5017215;28;20488;-65
2021/11/27 01:28:35;;;;;;;9.77;1.63;;;;;;;;;;5019083;28;20044;-65
2021/11/27 01:31:02;;;;;;;23.83;1.52;;;;;;;;;;5017658;28;20030;-64
2021/11/27 01:33:29;;;;;;;14.75;1.95;;;;;;;;;;5019144;28;20056;-65
2021/11/27 01:35:55;;;;;;;14.07;1.33;;;;;;;;;;5014618;28;20026;-66
2021/11/27 01:38:20;;;;;;;21.98;1.85;;;;;;;;;;5015872;28;20548;-66
2021/11/27 01:40:46;;;;;;;19.38;1.50;;;;;;;;;;5018774;28;20037;-65
2021/11/27 01:43:12;;;;;;;21.17;1.30;;;;;;;;;;5022682;28;20105;-64
2021/11/27 01:45:38;;;;;;;8.40;1.50;;;;;;;;;;5019341;28;20026;-65
2021/11/27 01:48:08;;;;;;;13.52;1.50;;;;;;;;;;5019402;28;20043;-65
2021/11/27 01:50:42;;;;;;;18.88;1.60;;;;;;;;;;5018547;28;20088;-64
2021/11/27 01:53:08;;;;;;;14.40;1.30;;;;;;;;;;5018079;28;20057;-64
2021/11/27 01:55:34;;;;;;;17.20;1.63;;;;;;;;;;5017362;28;20045;-64
2021/11/27 01:58:00;;;;;;;15.60;1.83;;;;;;;;;;5015019;28;20566;-64
2021/11/27 02:00:33;;;;;;;32.88;2.45;;;;;;;;;;5012548;28;20073;-65
2021/11/27 02:02:59;;;;;;;15.32;1.83;;;;;;;;;;5013458;28;20032;-64
2021/11/27 02:05:25;;;;;;;25.15;1.73;;;;;;;;;;5019581;28;20026;-63
2021/11/27 02:07:51;;;;;;;11.65;1.13;;;;;;;;;;5024735;28;20029;-63
2021/11/27 02:10:17;;;;;;;11.90;0.90;;;;;;;;;;5020147;28;20191;-65
2021/11/27 02:12:43;;;;;;;12.07;0.95;;;;;;;;;;5019481;28;20603;-64
2021/11/27 02:15:11;;;;;;;19.88;1.52;;;;;;;;;;5012509;28;20404;-65
2021/11/27 02:17:37;;;;;;;7.80;1.30;;;;;;;;;;5020391;28;20029;-65
2021/11/27 02:20:05;;;;;;;16.17;1.63;;;;;;;;;;5019257;28;20060;-65
2021/11/27 02:22:34;;;;;;;11.15;1.52;;;;;;;;;;5014475;28;20037;-64
2021/11/27 02:25:03;;;;;;;18.25;2.17;;;;;;;;;;5018276;28;20025;-64
2021/11/27 02:27:29;;;;;;;14.18;1.45;;;;;;;;;;5018064;28;21187;-65
2021/11/27 02:29:55;;;;;;;15.32;1.45;;;;;;;;;;5024348;28;20029;-65
2021/11/27 02:32:20;;;;;;;17.27;2.63;;;;;;;;;;5017595;28;20248;-64
2021/11/27 02:34:46;;;;;;;15.73;2.03;;;;;;;;;;5014107;28;20386;-63
2021/11/27 02:37:12;;;;;;;9.05;0.82;;;;;;;;;;5017792;28;20030;-64
2021/11/27 02:39:38;;;;;;;8.95;1.35;;;;;;;;;;5021390;28;20065;-64
2021/11/27 02:42:05;;;;;;;12.55;1.50;;;;;;;;;;5018698;28;20072;-64
2021/11/27 02:44:32;;;;;;;11.60;0.80;;;;;;;;;;5025688;28;20037;-64
2021/11/27 02:46:59;;;;;;;6.30;0.77;;;;;;;;;;5020322;28;20040;-63
2021/11/27 02:49:25;;;;;;;7.97;0.75;;;;;;;;;;5012931;28;20044;-63
2021/11/27 02:51:51;;;;;;;22.23;1.45;;;;;;;;;;5020265;28;20050;-64
2021/11/27 02:54:17;;;;;;;9.05;0.80;;;;;;;;;;5020380;28;20128;-64
2021/11/27 02:56:44;;;;;;;12.77;0.85;;;;;;;;;;5016693;28;20125;-64
2021/11/27 02:59:16;;;;;;;7.95;0.47;;;;;;;;;;5016214;28;20057;-63
2021/11/27 03:01:44;;;;;;;14.95;0.70;;;;;;;;;;5018782;28;20112;-64
2021/11/27 03:04:10;;;;;;;9.18;0.65;;;;;;;;;;5020732;28;20057;-64
2021/11/27 03:06:36;;;;;;;7.38;0.90;;;;;;;;;;5013837;28;20061;-63
2021/11/27 03:09:05;;;;;;;9.20;1.15;;;;;;;;;;5017883;28;20053;-65
2021/11/27 03:11:31;;;;;;;15.65;1.23;;;;;;;;;;5024327;28;20485;-64
2021/11/27 03:13:57;;;;;;;16.85;1.25;;;;;;;;;;5023937;28;20115;-63
2021/11/27 03:16:32;;;;;;;13.88;1.02;;;;;;;;;;5019138;28;20086;-63
2021/11/27 03:18:58;;;;;;;11.43;0.85;;;;;;;;;;5022395;28;20488;-64
2021/11/27 03:21:24;;;;;;;14.88;1.25;;;;;;;;;;5020161;28;20046;-63
2021/11/27 03:23:49;;;;;;;16.75;2.65;;;;;;;;;;5016020;28;20034;-64
2021/11/27 03:26:16;;;;;;;12.05;0.90;;;;;;;;;;5021889;28;20034;-64
2021/11/27 03:28:43;;;;;;;15.80;1.08;;;;;;;;;;5019548;28;20110;-64
2021/11/27 03:31:10;;;;;;;21.45;1.20;;;;;;;;;;5020084;28;20034;-65
2021/11/27 03:33:36;;;;;;;18.38;1.42;;;;;;;;;;5017732;28;20033;-64
2021/11/27 03:36:01;;;;;;;8.85;0.70;;;;;;;;;;5015331;28;20404;-65
2021/11/27 03:38:27;;;;;;;8.55;0.80;;;;;;;;;;5020324;28;20038;-65
2021/11/27 03:40:52;;;;;;;13.35;1.15;;;;;;;;;;5023517;28;20087;-64
2021/11/27 03:43:19;;;;;;;13.02;0.60;;;;;;;;;;5017915;28;20052;-64
2021/11/27 03:45:44;;;;;;;12.10;1.02;;;;;;;;;;5011282;28;20030;-63
2021/11/27 03:48:17;;;;;;;18.75;1.13;;;;;;;;;;5015056;28;20045;-64
2021/11/27 03:50:48;;;;;;;17.95;1.10;;;;;;;;;;5019383;28;20555;-64
2021/11/27 03:53:18;;;;;;;11.38;0.90;;;;;;;;;;5020184;28;20461;-64
2021/11/27 03:55:44;;;;;;;12.27;1.08;;;;;;;;;;5018131;28;20385;-65
2021/11/27 03:58:09;;;;;;;12.45;1.10;;;;;;;;;;5020993;28;20045;-63
2021/11/27 04:00:37;;;;;;;10.35;1.17;;;;;;;;;;5016133;28;20288;-63
2021/11/27 04:03:04;;;;;;;15.63;0.73;;;;;;;;;;5015339;28;20034;-64
2021/11/27 04:05:29;;;;;;;7.03;0.85;;;;;;;;;;5015627;28;20101;-64
2021/11/27 04:07:57;;;;;;;7.55;0.90;;;;;;;;;;5013291;28;20121;-63
2021/11/27 04:10:24;;;;;;;9.23;0.60;;;;;;;;;;5015155;28;20110;-62
2021/11/27 04:12:50;;;;;;;5.80;0.60;;;;;;;;;;5013007;28;20397;-63
2021/11/27 04:15:16;;;;;;;6.88;0.80;;;;;;;;;;5020876;28;20047;-64
2021/11/27 04:17:42;;;;;;;7.93;0.52;;;;;;;;;;5014312;28;20149;-64
2021/11/27 04:20:08;;;;;;;2.78;0.30;;;;;;;;;;5013676;28;20033;-63
2021/11/27 04:22:33;;;;;;;10.90;0.40;;;;;;;;;;5018612;28;20269;-64
2021/11/27 04:24:59;;;;;;;4.90;0.20;;;;;;;;;;5021520;28;20300;-64
2021/11/27 04:27:24;;;;;;;5.03;0.60;;;;;;;;;;5022231;28;20390;-64
2021/11/27 04:29:50;;;;;;;10.95;0.88;;;;;;;;;;5017593;28;20048;-63
2021/11/27 04:32:16;;;;;;;6.97;0.52;;;;;;;;;;5023697;28;20388;-62
2021/11/27 04:34:41;;;;;;;3.80;0.20;;;;;;;;;;5025966;28;20061;-63
2021/11/27 04:37:10;;;;;;;9.25;0.55;;;;;;;;;;5017786;28;20492;-63
2021/11/27 04:39:39;;;;;;;5.93;0.55;;;;;;;;;;5020994;28;20712;-63
2021/11/27 04:42:05;;;;;;;8.05;0.55;;;;;;;;;;5023858;28;20033;-63
2021/11/27 04:44:31;;;;;;;7.50;0.52;;;;;;;;;;5023687;28;20144;-64
2021/11/27 04:46:56;;;;;;;10.52;1.02;;;;;;;;;;5017401;28;20144;-63
2021/11/27 04:49:22;;;;;;;3.75;0.77;;;;;;;;;;5019402;28;20483;-64
2021/11/27 04:51:48;;;;;;;3.42;0.30;;;;;;;;;;5022724;28;20029;-64
2021/11/27 04:54:13;;;;;;;9.90;0.80;;;;;;;;;;5022574;28;20041;-65
2021/11/27 04:56:39;;;;;;;6.22;0.52;;;;;;;;;;5048729;28;20029;-64
2021/11/27 04:59:04;;;;;;;1.02;0.28;;;;;;;;;;5017762;28;20034;-64
2021/11/27 05:01:30;;;;;;;2.55;0.10;;;;;;;;;;5022843;28;20270;-63
2021/11/27 05:03:56;;;;;;;3.30;0.20;;;;;;;;;;5020226;28;20057;-62
2021/11/27 05:06:22;;;;;;;9.30;0.50;;;;;;;;;;5020099;28;20219;-63
2021/11/27 05:08:48;;;;;;;5.20;0.68;;;;;;;;;;5020045;28;20105;-63
2021/11/27 05:11:13;;;;;;;9.32;0.82;;;;;;;;;;5019359;28;20171;-64
2021/11/27 05:13:39;;;;;;;4.97;0.17;;;;;;;;;;5014980;28;20480;-63
2021/11/27 05:16:07;;;;;;;10.05;0.40;;;;;;;;;;5024212;28;20045;-64
2021/11/27 05:18:33;;;;;;;5.80;0.68;;;;;;;;;;5019548;28;20056;-63
2021/11/27 05:20:59;;;;;;;7.32;0.47;;;;;;;;;;5020194;28;20052;-63
2021/11/27 05:23:24;;;;;;;9.02;0.47;;;;;;;;;;5018102;28;20409;-63
2021/11/27 05:25:50;;;;;;;4.68;0.40;;;;;;;;;;5020829;28;20030;-63
2021/11/27 05:28:15;;;;;;;10.90;0.28;;;;;;;;;;5020930;28;20108;-64
2021/11/27 05:30:41;;;;;;;4.93;0.63;;;;;;;;;;5020759;28;20021;-64
2021/11/27 05:33:12;;;;;;;6.25;0.80;;;;;;;;;;5011289;28;20038;-64
2021/11/27 05:35:39;;;;;;;4.68;0.32;;;;;;;;;;5017721;28;20044;-64
2021/11/27 05:38:05;;;;;;;4.75;0.38;;;;;;;;;;5020026;28;20029;-64
2021/11/27 05:40:31;;;;;;;3.05;0.40;;;;;;;;;;5013181;28;20035;-64
2021/11/27 05:42:56;;;;;;;6.90;0.30;;;;;;;;;;5020249;28;20079;-64
2021/11/27 05:45:28;;;;;;;2.70;0.30;;;;;;;;;;5019389;28;20036;-65
2021/11/27 05:47:59;;;;;;;10.10;0.45;;;;;;;;;;5017052;28;20045;-64
2021/11/27 05:50:25;;;;;;;4.85;0.20;;;;;;;;;;5015681;28;20041;-64
2021/11/27 05:52:51;;;;;;;7.40;0.30;;;;;;;;;;5017086;28;20627;-65
2021/11/27 05:55:17;;;;;;;6.25;0.55;;;;;;;;;;5018337;28;20051;-64
2021/11/27 05:57:43;;;;;;;23.02;1.33;;;;;;;;;;5020294;28;20030;-63
2021/11/27 06:00:10;;;;;;;11.88;0.75;;;;;;;;;;5021025;28;20041;-64
2021/11/27 06:02:35;;;;;;;12.00;0.82;;;;;;;;;;5017601;28;20030;-63
2021/11/27 06:05:01;;;;;;;7.10;0.70;;;;;;;;;;5018730;28;20088;-64
2021/11/27 06:07:26;;;;;;;1.63;0.20;;;;;;;;;;5017290;28;20417;-63
2021/11/27 06:09:51;;;;;;;12.90;0.70;;;;;;;;;;5015696;28;20027;-63
2021/11/27 06:12:17;;;;;;;11.85;0.70;;;;;;;;;;5014740;28;20485;-63
2021/11/27 06:14:42;;;;;;;9.55;0.60;;;;;;;;;;5016077;28;20116;-64
2021/11/27 06:17:08;;;;;;;2.72;0.30;;;;;;;;;;5017319;28;20034;-65
2021/11/27 06:19:33;;;;;;;6.30;0.68;;;;;;;;;;5016904;28;20496;-64
2021/11/27 06:21:59;;;;;;;3.50;0.45;;;;;;;;;;5017894;28;20038;-65
2021/11/27 06:24:25;;;;;;;9.48;0.40;;;;;;;;;;5012785;28;20386;-64
2021/11/27 06:26:50;;;;;;;9.85;0.45;;;;;;;;;;5025763;28;20547;-65
2021/11/27 06:29:17;;;;;;;12.75;0.65;;;;;;;;;;5019764;28;20397;-64
2021/11/27 06:31:42;;;;;;;7.53;0.75;;;;;;;;;;5015353;28;20152;-65
2021/11/27 06:34:08;;;;;;;2.55;0.38;;;;;;;;;;5014802;28;20117;-65
2021/11/27 06:36:33;;;;;;;16.23;0.98;;;;;;;;;;5016520;28;20113;-64
2021/11/27 06:38:59;;;;;;;12.50;1.38;;;;;;;;;;5017708;28;20404;-64
2021/11/27 06:41:24;;;;;;;4.18;0.70;;;;;;;;;;5012454;28;20088;-65
2021/11/27 06:43:50;;;;;;;10.88;1.95;;;;;;;;;;5016496;28;20086;-64
2021/11/27 06:46:16;;;;;;;11.32;0.70;;;;;;;;;;5016043;28;20033;-65
2021/11/27 06:48:41;;;;;;;18.73;1.20;;;;;;;;;;5017403;28;20032;-63
2021/11/27 06:51:07;;;;;;;12.20;0.93;;;;;;;;;;5017676;28;20108;-65
2021/11/27 06:53:32;;;;;;;7.00;0.28;;;;;;;;;;5019348;28;20134;-66
2021/11/27 06:55:58;;;;;;;5.82;0.60;;;;;;;;;;5012459;28;20619;-64
2021/11/27 06:58:24;;;;;;;6.63;0.73;;;;;;;;;;5015832;28;20038;-64
2021/11/27 07:00:49;;;;;;;12.75;0.90;;;;;;;;;;5019706;28;20522;-64
2021/11/27 07:03:15;;;;;;;11.15;1.73;;;;;;;;;;5014185;28;20044;-63
2021/11/27 07:05:40;;;;;;;15.73;0.95;;;;;;;;;;5012819;28;20112;-64
2021/11/27 07:08:07;;;;;;;14.27;1.00;;;;;;;;;;5015533;28;20057;-64
2021/11/27 07:10:34;;;;;;;6.90;0.88;;;;;;;;;;5020137;28;20558;-65
2021/11/27 07:13:01;;;;;;;10.52;1.05;;;;;;;;;;5010940;28;20045;-64
2021/11/27 07:15:27;;;;;;;19.27;2.80;;;;;;;;;;5010551;28;20409;-63
2021/11/27 07:17:52;;;;;;;8.10;1.50;;;;;;;;;;5017442;28;20029;-63
2021/11/27 07:20:18;;;;;;;8.98;0.80;;;;;;;;;;5012963;28;20091;-64
2021/11/27 07:22:43;;;;;;;13.88;1.05;;;;;;;;;;5012763;28;20076;-63
2021/11/27 07:25:09;;;;;;;7.18;0.75;;;;;;;;;;5018151;28;20018;-63
2021/11/27 07:27:35;;;;;;;10.48;0.60;;;;;;;;;;5019788;28;20025;-64
2021/11/27 07:30:00;;;;;;;6.93;1.38;;;;;;;;;;5019886;28;20072;-64
2021/11/27 07:32:26;;;;;;;4.63;0.68;;;;;;;;;;5014459;28;20041;-64
2021/11/27 07:34:51;;;;;;;11.20;0.88;;;;;;;;;;5015562;28;20052;-64
2021/11/27 07:37:17;;;;;;;14.48;1.13;;;;;;;;;;5016609;28;20057;-64
2021/11/27 07:39:42;;;;;;;6.97;1.27;;;;;;;;;;5011053;28;20084;-64
2021/11/27 07:42:08;;;;;;;6.50;0.70;;;;;;;;;;5016534;28;20037;-64
2021/11/27 07:44:33;;;;;;;10.50;0.80;;;;;;;;;;5013624;28;20030;-64
2021/11/27 07:46:59;;;;;;;15.25;1.02;;;;;;;;;;5010455;28;20026;-64
2021/11/27 07:49:26;;;;;;;6.47;0.47;;;;;;;;;;5014556;28;20393;-63
2021/11/27 07:51:52;;;;;;;15.82;1.17;;;;;;;;;;5019144;28;20069;-64
2021/11/27 07:54:19;;;;;;;9.45;1.45;;;;;;;;;;5015456;28;20164;-64
2021/11/27 07:56:45;;;;;;;23.30;2.30;;;;;;;;;;5012421;28;20037;-64
2021/11/27 07:59:11;;;;;;;12.70;1.13;;;;;;;;;;5022308;28;20100;-64
2021/11/27 08:01:36;;;;;;;7.50;0.88;;;;;;;;;;5014628;28;20162;-64
2021/11/27 08:04:02;;;;;;;14.27;1.38;;;;;;;;;;5021234;28;20564;-62
2021/11/27 08:06:28;;;;;;;7.60;0.73;;;;;;;;;;5020762;28;20036;-64
2021/11/27 08:08:54;;;;;;;6.55;0.57;;;;;;;;;;5022380;28;20022;-64
2021/11/27 08:11:21;;;;;;;6.45;0.57;;;;;;;;;;5013234;28;20022;-63
2021/11/27 08:13:48;;;;;;;10.00;0.80;;;;;;;;;;5018706;28;20083;-63
2021/11/27 08:16:14;;;;;;;8.02;1.40;;;;;;;;;;5020712;28;20113;-62
2021/11/27 08:18:40;;;;;;;10.60;0.75;;;;;;;;;;5021644;28;20026;-63
2021/11/27 08:21:06;;;;;;;15.05;1.00;;;;;;;;;;5019784;28;20037;-62
2021/11/27 08:23:32;;;;;;;7.25;0.73;;;;;;;;;;5018576;28;20032;-63
2021/11/27 08:25:58;;;;;;;9.50;1.42;;;;;;;;;;5016756;28;20104;-63
2021/11/27 08:28:23;;;;;;;7.15;0.82;;;;;;;;;;5016666;28;20033;-63
2021/11/27 08:30:50;;;;;;;12.93;0.65;;;;;;;;;;5014593;28;20075;-64
2021/11/27 08:33:15;;;;;;;7.65;0.60;;;;;;;;;;5015241;28;20073;-65
2021/11/27 08:35:41;;;;;;;11.23;0.80;;;;;;;;;;5006674;28;20030;-65
2021/11/27 08:38:06;;;;;;;5.65;0.68;;;;;;;;;;5018703;28;20041;-65
2021/11/27 08:40:32;;;;;;;10.65;1.75;;;;;;;;;;5019190;28;20033;-65
2021/11/27 08:42:58;;;;;;;3.75;1.10;;;;;;;;;;5017001;28;20042;-65
2021/11/27 08:45:25;;;;;;;19.48;1.00;;;;;;;;;;5017009;28;20045;-65
2021/11/27 08:47:51;;;;;;;11.35;0.40;;;;;;;;;;5018332;28;20030;-64
2021/11/27 08:50:17;;;;;;;21.52;1.55;;;;;;;;;;5014048;28;20118;-65
2021/11/27 08:52:43;;;;;;;10.73;1.08;;;;;;;;;;5002152;28;20058;-64
2021/11/27 08:55:08;;;;;;;9.13;1.13;;;;;;;;;;5017111;28;20405;-65
2021/11/27 08:57:34;;;;;;;4.93;0.75;;;;;;;;;;5023140;28;20060;-64
2021/11/27 09:00:00;;;;;;;18.00;1.80;;;;;;;;;;5025944;28;21559;-59
2021/11/27 09:02:25;;;;;;;10.77;1.30;;;;;;;;;;5018223;28;20033;-62
2021/11/27 09:04:51;;;;;;;5.00;1.73;;;;;;;;;;5017972;28;20034;-64
2021/11/27 09:07:17;;;;;;;6.50;0.68;;;;;;;;;;5025027;28;20463;-63
2021/11/27 09:09:45;;;;;;;11.55;0.93;;;;;;;;;;5018871;28;20042;-62
2021/11/27 09:12:11;;;;;;;10.35;0.75;;;;;;;;;;5013586;28;20065;-63
2021/11/27 09:14:37;;;;;;;21.48;1.60;;;;;;;;;;5023866;28;20480;-63
2021/11/27 09:17:03;;;;;;;17.92;1.63;;;;;;;;;;5022709;28;20041;-63
2021/11/27 09:19:29;;;;;;;15.48;1.55;;;;;;;;;;5022982;28;20128;-63
2021/11/27 09:21:56;;;;;;;5.30;0.70;;;;;;;;;;5024308;28;20164;-63
2021/11/27 09:24:21;;;;;;;11.48;1.17;;;;;;;;;;5003897;28;20096;-62
2021/11/27 09:26:48;;;;;;;16.13;1.58;;;;;;;;;;5022552;28;20077;-63
2021/11/27 09:29:14;;;;;;;10.18;1.10;;;;;;;;;;5019788;28;20044;-63
2021/11/27 09:31:41;;;;;;;5.70;0.73;;;;;;;;;;5018890;28;20021;-63
2021/11/27 09:34:08;;;;;;;8.05;1.17;;;;;;;;;;5019700;28;20048;-64
2021/11/27 09:36:35;;;;;;;8.43;1.05;;;;;;;;;;5015734;28;20033;-63
2021/11/27 09:39:01;;;;;;;5.35;0.90;;;;;;;;;;5016385;28;20025;-64
2021/11/27 09:41:29;;;;;;;12.75;1.80;;;;;;;;;;5015415;28;20029;-64
2021/11/27 09:44:06;;;;;;;12.77;1.10;;;;;;;;;;5017913;28;20022;-64
2021/11/27 09:46:36;;;;;;;7.55;0.55;;;;;;;;;;5017955;28;20013;-63
2021/11/27 09:49:07;;;;;;;14.77;1.20;;;;;;;;;;5022472;28;20032;-64
2021/11/27 09:51:34;;;;;;;11.55;1.33;;;;;;;;;;5028564;28;20030;-63
2021/11/27 09:54:01;;;;;;;16.95;1.45;;;;;;;;;;5021316;28;20053;-63
2021/11/27 09:56:28;;;;;;;14.00;1.15;;;;;;;;;;5017382;28;20060;-62
2021/11/27 09:58:54;;;;;;;12.82;0.82;;;;;;;;;;5019397;28;20427;-64
2021/11/27 10:01:25;;;;;;;10.70;0.77;;;;;;;;;;5014683;28;20030;-64
2021/11/27 10:04:09;;;;;;;10.55;0.90;;;;;;;;;;5021544;28;20038;-63
2021/11/27 10:06:38;;;;;;;7.82;0.77;;;;;;;;;;5019673;28;20037;-65
2021/11/27 10:09:10;;;;;;;8.52;0.90;;;;;;;;;;5018510;28;20037;-68
2021/11/27 10:11:36;;;;;;;8.48;1.40;;;;;;;;;;5016296;28;20025;-65
2021/11/27 10:14:03;;;;;;;7.70;0.82;;;;;;;;;;5018863;28;20052;-66
2021/11/27 10:16:31;;;;;;;9.80;1.10;;;;;;;;;;5013384;28;20079;-64
2021/11/27 10:19:12;;;;;;;9.73;0.82;;;;;;;;;;5017665;28;20576;-65
2021/11/27 10:21:39;;;;;;;9.73;1.20;;;;;;;;;;5020610;28;20045;-65
2021/11/27 10:24:23;;;;;;;10.27;1.00;;;;;;;;;;5018420;28;20495;-65
2021/11/27 10:26:50;;;;;;;12.10;0.75;;;;;;;;;;5016085;28;20025;-66
2021/11/27 10:29:22;;;;;;;16.92;1.40;;;;;;;;;;5022672;28;20104;-66
2021/11/27 10:31:50;;;;;;;14.05;1.17;;;;;;;;;;5014184;28;20310;-67
2021/11/27 10:34:24;;;;;;;6.20;0.98;;;;;;;;;;5016414;28;20029;-65
2021/11/27 10:36:50;;;;;;;6.30;0.70;;;;;;;;;;5018182;28;20120;-64
2021/11/27 10:39:17;;;;;;;9.77;0.75;;;;;;;;;;5017109;28;20443;-66
2021/11/27 10:42:02;;;;;;;3.03;0.55;;;;;;;;;;5023441;28;20435;-65
2021/11/27 10:44:30;;;;;;;4.35;0.65;;;;;;;;;;5016635;28;20645;-66
2021/11/27 10:47:13;;;;;;;3.70;0.57;;;;;;;;;;5022028;28;20459;-65
2021/11/27 10:49:40;;;;;;;20.25;1.10;;;;;;;;;;5016779;28;20036;-62
2021/11/27 10:52:11;;;;;;;6.60;1.30;;;;;;;;;;5015283;28;20534;-69
2021/11/27 10:54:53;;;;;;;11.43;2.42;;;;;;;;;;5020700;28;20484;-63
2021/11/27 10:57:32;;;;;;;13.82;1.80;;;;;;;;;;5016746;28;20029;-60
2021/11/27 11:00:05;;;;;;;6.57;0.40;;;;;;;;;;5019302;28;20442;-63
2021/11/27 11:02:33;;;;;;;12.02;0.65;;;;;;;;;;5015176;28;20451;-63
2021/11/27 11:05:00;;;;;;;8.05;0.73;;;;;;;;;;5019112;28;20049;-65
2021/11/27 11:07:30;;;;;;;21.65;0.93;;;;;;;;;;5013786;28;20038;-63
2021/11/27 11:10:12;;;;;;;11.57;1.15;;;;;;;;;;5010107;28;20528;-65
2021/11/27 11:12:48;;;;;;;12.48;1.00;;;;;;;;;;5017833;28;20219;-65
2021/11/27 11:15:20;;;;;;;12.23;1.02;;;;;;;;;;5017755;28;20044;-63
2021/11/27 11:17:47;;;;;;;11.07;0.60;;;;;;;;;;5015386;28;20043;-64
2021/11/27 11:20:27;;;;;;;14.52;0.85;;;;;;;;;;5021477;28;20551;-65
2021/11/27 11:22:57;;;;;;;6.72;0.50;;;;;;;;;;5020526;28;20063;-64
2021/11/27 11:25:23;;;;;;;15.60;1.10;;;;;;;;;;5020247;28;20168;-64
2021/11/27 11:27:49;;;;;;;12.50;1.02;;;;;;;;;;5017738;28;20544;-63
2021/11/27 11:30:17;;;;;;;9.52;0.55;;;;;;;;;;5018508;28;20068;-65
2021/11/27 11:32:42;;;;;;;5.68;0.60;;;;;;;;;;5017918;28;20113;-64
2021/11/27 11:35:09;;;;;;;7.90;0.50;;;;;;;;;;5023795;28;20465;-65
2021/11/27 11:37:34;;;;;;;9.55;0.70;;;;;;;;;;5020362;28;20511;-65
2021/11/27 11:40:00;;;;;;;12.13;0.98;;;;;;;;;;5021146;28;20624;-64
2021/11/27 11:42:29;;;;;;;3.75;0.65;;;;;;;;;;5022906;28;20044;-64
2021/11/27 11:44:55;;;;;;;8.93;0.98;;;;;;;;;;5017451;28;20036;-63
2021/11/27 11:47:23;;;;;;;9.82;1.02;;;;;;;;;;5025277;28;20307;-63
2021/11/27 11:49:59;;;;;;;10.50;0.70;;;;;;;;;;5023442;28;20095;-64
2021/11/27 11:53:01;;;;;;;7.15;1.20;;;;;;;;;;5019322;28;20137;-64
2021/11/27 11:55:27;;;;;;;7.72;1.00;;;;;;;;;;4993919;28;20049;-64
2021/11/27 11:57:56;;;;;;;2.40;0.50;;;;;;;;;;5019308;28;20029;-65
2021/11/27 12:00:22;;;;;;;4.90;0.52;;;;;;;;;;5020133;28;20529;-64
2021/11/27 12:02:48;;;;;;;7.22;1.38;;;;;;;;;;5013371;28;20036;-65
2021/11/27 12:05:15;;;;;;;9.07;1.13;;;;;;;;;;5022293;28;20029;-63
2021/11/27 12:07:53;;;;;;;8.52;0.98;;;;;;;;;;5016093;28;21074;-64
2021/11/27 12:10:47;;;;;;;11.13;0.77;;;;;;;;;;5019129;28;20148;-64
2021/11/27 12:13:24;;;;;;;6.20;0.85;;;;;;;;;;5018262;28;20057;-65
2021/11/27 12:16:01;;;;;;;8.40;1.35;;;;;;;;;;5024648;28;20064;-66
2021/11/27 12:18:27;;;;;;;13.52;1.00;;;;;;;;;;5020000;28;20040;-64
2021/11/27 12:21:01;;;;;;;10.70;1.10;;;;;;;;;;5017736;28;20145;-65
2021/11/27 12:23:38;;;;;;;12.23;1.27;;;;;;;;;;5024773;28;20049;-64
2021/11/27 12:26:13;;;;;;;13.88;1.27;;;;;;;;;;5021771;28;20078;-65
2021/11/27 12:28:41;;;;;;;7.82;1.35;;;;;;;;;;5022642;28;20025;-65
2021/11/27 12:31:10;;;;;;;12.93;1.45;;;;;;;;;;5021151;28;20034;-64
2021/11/27 12:33:44;;;;;;;13.40;1.35;;;;;;;;;;5020253;28;20080;-66
2021/11/27 12:36:25;;;;;;;7.82;1.45;;;;;;;;;;5022090;28;20034;-66
2021/11/27 12:38:58;;;;;;;14.57;1.98;;;;;;;;;;5024028;28;20112;-66
2021/11/27 12:41:35;;;;;;;13.73;1.35;;;;;;;;;;5024687;28;20051;-64
2021/11/27 12:44:19;;;;;;;5.72;0.90;;;;;;;;;;5015837;28;20029;-64
2021/11/27 12:46:50;;;;;;;16.38;1.23;;;;;;;;;;5013111;28;20385;-65
2021/11/27 12:49:30;;;;;;;13.13;1.25;;;;;;;;;;5016440;28;20112;-65
2021/11/27 12:52:17;;;;;;;15.93;1.73;;;;;;;;;;5021267;28;20042;-64
2021/11/27 12:54:44;;;;;;;13.15;1.30;;;;;;;;;;5017184;28;20053;-64
2021/11/27 12:57:14;;;;;;;16.58;1.35;;;;;;;;;;5015708;28;20113;-64
2021/11/27 12:59:44;;;;;;;12.30;1.20;;;;;;;;;;5018050;28;20492;-63
2021/11/27 13:02:13;;;;;;;8.00;0.77;;;;;;;;;;5019840;28;20033;-65
2021/11/27 13:04:39;;;;;;;14.77;1.48;;;;;;;;;;5015566;28;20404;-64
2021/11/27 13:07:05;;;;;;;9.75;1.38;;;;;;;;;;5016410;28;20018;-63
2021/11/27 13:09:30;;;;;;;8.23;1.10;;;;;;;;;;5018250;28;20530;-65
2021/11/27 13:11:57;;;;;;;6.05;0.80;;;;;;;;;;5014521;28;20414;-65
2021/11/27 13:14:30;;;;;;;9.25;1.38;;;;;;;;;;5024532;28;20037;-65
2021/11/27 13:17:08;;;;;;;11.73;1.08;;;;;;;;;;5027511;28;20024;-64
2021/11/27 13:19:37;;;;;;;11.32;1.40;;;;;;;;;;5014992;28;20017;-64
2021/11/27 13:22:20;;;;;;;8.30;1.20;;;;;;;;;;5017656;28;20026;-63
2021/11/27 13:24:56;;;;;;;8.15;1.20;;;;;;;;;;5019039;28;20030;-66
2021/11/27 13:27:24;;;;;;;25.55;2.70;;;;;;;;;;5021790;28;20080;-66
2021/11/27 13:29:58;;;;;;;9.27;2.75;;;;;;;;;;5017180;28;20496;-66
2021/11/27 13:32:36;;;;;;;18.02;2.95;;;;;;;;;;5021205;28;20124;-64
2021/11/27 13:35:02;;;;;;;22.25;3.80;;;;;;;;;;5015285;28;20135;-63
2021/11/27 13:37:28;;;;;;;12.90;3.08;;;;;;;;;;5021315;28;20037;-64
2021/11/27 13:39:54;;;;;;;10.90;2.42;;;;;;;;;;5016164;28;20087;-64
2021/11/27 13:42:21;;;;;;;20.40;2.45;;;;;;;;;;5023249;28;20116;-63
2021/11/27 13:44:49;;;;;;;8.77;1.95;;;;;;;;;;5018340;28;20105;-64
2021/11/27 13:47:21;;;;;;;9.25;1.75;;;;;;;;;;5018999;28;20037;-64
2021/11/27 13:49:46;;;;;;;17.73;2.13;;;;;;;;;;5018892;28;20059;-63
2021/11/27 13:52:18;;;;;;;15.25;1.52;;;;;;;;;;5018805;28;20801;-62
2021/11/27 13:54:55;;;;;;;12.50;1.55;;;;;;;;;;5017103;28;20782;-64
2021/11/27 13:57:23;;;;;;;11.00;0.98;;;;;;;;;;5012815;28;20034;-64
2021/11/27 13:59:49;;;;;;;9.18;1.38;;;;;;;;;;5016018;28;20041;-64
2021/11/27 14:02:17;;;;;;;7.53;1.35;;;;;;;;;;5014200;28;20025;-63
2021/11/27 14:04:44;;;;;;;13.57;1.98;;;;;;;;;;5020497;28;20112;-63
2021/11/27 14:07:15;;;;;;;13.13;1.63;;;;;;;;;;5018538;28;20112;-64
2021/11/27 14:09:57;;;;;;;13.82;0.98;;;;;;;;;;5017998;28;20080;-64
2021/11/27 14:12:37;;;;;;;8.75;1.17;;;;;;;;;;5015517;28;20489;-63
2021/11/27 14:15:12;;;;;;;5.47;1.08;;;;;;;;;;5017361;28;20044;-63
2021/11/27 14:17:38;;;;;;;9.93;1.10;;;;;;;;;;5015758;28;20571;-63
2021/11/27 14:20:16;;;;;;;8.02;1.52;;;;;;;;;;5012065;28;20072;-64
2021/11/27 14:23:18;;;;;;;9.68;1.20;;;;;;;;;;5019307;28;20044;-63
2021/11/27 14:26:13;;;;;;;10.50;1.30;;;;;;;;;;5018556;28;20017;-63
2021/11/27 14:28:51;;;;;;;16.13;1.40;;;;;;;;;;5014575;28;20152;-63
2021/11/27 14:31:32;;;;;;;17.25;1.30;;;;;;;;;;5009314;28;20029;-63
2021/11/27 14:34:09;;;;;;;16.83;1.50;;;;;;;;;;5010763;28;20555;-62
2021/11/27 14:36:38;;;;;;;12.25;1.65;;;;;;;;;;5011943;28;20030;-64
2021/11/27 14:39:19;;;;;;;7.93;1.25;;;;;;;;;;5017103;28;20088;-64
2021/11/27 14:41:46;;;;;;;11.15;1.00;;;;;;;;;;5016935;28;20480;-63